sensor_id;sensor_type;location;lat;lon;timestamp;P1;durP1;ratioP1;P2;durP2;ratioP2
49193;SDS011;35029;50.804;12.866;2023-05-07T00:01:52;15.57;;;12.80;;
49193;SDS011;35029;50.804;12.866;2023-05-07T00:04:18;15.27;;;11.38;;
49193;SDS011;35029;50.804;12.866;2023-05-07T00:06:44;19.40;;;13.50;;
49193;SDS011;35029;50.804;12.866;2023-05-07T00:09:09;15.43;;;12.63;;
49193;SDS011;35029;50.804;12.866;2023-05-07T00:11:36;13.85;;;11.48;;
49193;SDS011;35029;50.804;12.866;2023-05-07T00:14:01;17.48;;;13.00;;
49193;SDS011;35029;50.804;12.866;2023-05-07T00:16:27;16.88;;;12.50;;
49193;SDS011;35029;50.804;12.866;2023-05-07T00:18:52;15.15;;;12.25;;
49193;SDS011;35029;50.804;12.866;2023-05-07T00:21:18;15.27;;;11.88;;
49193;SDS011;35029;50.804;12.866;2023-05-07T00:23:44;14.98;;;10.88;;
49193;SDS011;35029;50.804;12.866;2023-05-07T00:26:09;12.60;;;10.45;;
49193;SDS011;35029;50.804;12.866;2023-05-07T00:28:36;14.10;;;10.40;;
49193;SDS011;35029;50.804;12.866;2023-05-07T00:31:01;15.07;;;10.52;;
49193;SDS011;35029;50.804;12.866;2023-05-07T00:33:27;13.73;;;10.25;;
49193;SDS011;35029;50.804;12.866;2023-05-07T00:35:52;11.00;;;9.15;;
49193;SDS011;35029;50.804;12.866;2023-05-07T00:38:19;11.23;;;9.07;;
49193;SDS011;35029;50.804;12.866;2023-05-07T00:40:45;12.07;;;8.57;;
49193;SDS011;35029;50.804;12.866;2023-05-07T00:43:11;10.55;;;8.88;;
49193;SDS011;35029;50.804;12.866;2023-05-07T00:45:37;9.90;;;8.65;;
49193;SDS011;35029;50.804;12.866;2023-05-07T00:48:03;13.23;;;9.88;;
49193;SDS011;35029;50.804;12.866;2023-05-07T00:50:30;9.63;;;8.05;;
49193;SDS011;35029;50.804;12.866;2023-05-07T00:52:56;10.27;;;8.35;;
49193;SDS011;35029;50.804;12.866;2023-05-07T00:55:22;11.07;;;8.95;;
49193;SDS011;35029;50.804;12.866;2023-05-07T00:57:48;10.68;;;9.05;;
49193;SDS011;35029;50.804;12.866;2023-05-07T01:00:15;9.63;;;8.07;;
49193;SDS011;35029;50.804;12.866;2023-05-07T01:02:41;11.63;;;8.95;;
49193;SDS011;35029;50.804;12.866;2023-05-07T01:05:08;9.38;;;7.72;;
49193;SDS011;35029;50.804;12.866;2023-05-07T01:07:37;11.60;;;8.70;;
49193;SDS011;35029;50.804;12.866;2023-05-07T01:10:07;11.77;;;7.70;;
49193;SDS011;35029;50.804;12.866;2023-05-07T01:12:34;11.10;;;8.73;;
49193;SDS011;35029;50.804;12.866;2023-05-07T01:15:01;10.20;;;8.65;;
49193;SDS011;35029;50.804;12.866;2023-05-07T01:17:34;11.70;;;8.15;;
49193;SDS011;35029;50.804;12.866;2023-05-07T01:20:01;10.52;;;8.27;;
49193;SDS011;35029;50.804;12.866;2023-05-07T01:22:37;11.77;;;9.10;;
49193;SDS011;35029;50.804;12.866;2023-05-07T01:25:06;8.98;;;8.05;;
49193;SDS011;35029;50.804;12.866;2023-05-07T01:27:40;12.23;;;8.77;;
49193;SDS011;35029;50.804;12.866;2023-05-07T01:30:07;10.57;;;8.38;;
49193;SDS011;35029;50.804;12.866;2023-05-07T01:32:36;9.48;;;8.13;;
49193;SDS011;35029;50.804;12.866;2023-05-07T01:35:07;11.82;;;9.00;;
49193;SDS011;35029;50.804;12.866;2023-05-07T01:37:36;10.70;;;9.05;;
49193;SDS011;35029;50.804;12.866;2023-05-07T01:40:03;11.40;;;9.15;;
49193;SDS011;35029;50.804;12.866;2023-05-07T01:42:30;13.00;;;10.77;;
49193;SDS011;35029;50.804;12.866;2023-05-07T01:44:56;15.52;;;10.82;;
49193;SDS011;35029;50.804;12.866;2023-05-07T01:47:22;12.77;;;10.00;;
49193;SDS011;35029;50.804;12.866;2023-05-07T01:49:48;13.07;;;10.93;;
49193;SDS011;35029;50.804;12.866;2023-05-07T01:52:14;15.25;;;11.25;;
49193;SDS011;35029;50.804;12.866;2023-05-07T01:54:40;13.32;;;10.75;;
49193;SDS011;35029;50.804;12.866;2023-05-07T01:57:06;14.68;;;11.70;;
49193;SDS011;35029;50.804;12.866;2023-05-07T01:59:31;14.65;;;11.75;;
49193;SDS011;35029;50.804;12.866;2023-05-07T02:01:58;15.63;;;12.13;;
49193;SDS011;35029;50.804;12.866;2023-05-07T02:04:23;17.13;;;12.63;;
49193;SDS011;35029;50.804;12.866;2023-05-07T02:06:51;14.55;;;11.95;;
49193;SDS011;35029;50.804;12.866;2023-05-07T02:09:18;14.73;;;11.27;;
49193;SDS011;35029;50.804;12.866;2023-05-07T02:11:46;14.95;;;12.13;;
49193;SDS011;35029;50.804;12.866;2023-05-07T02:14:12;15.25;;;12.27;;
49193;SDS011;35029;50.804;12.866;2023-05-07T02:16:37;14.85;;;12.15;;
49193;SDS011;35029;50.804;12.866;2023-05-07T02:19:04;14.02;;;12.40;;
49193;SDS011;35029;50.804;12.866;2023-05-07T02:21:30;13.50;;;12.10;;
49193;SDS011;35029;50.804;12.866;2023-05-07T02:23:56;16.00;;;12.85;;
49193;SDS011;35029;50.804;12.866;2023-05-07T02:26:21;14.48;;;12.38;;
49193;SDS011;35029;50.804;12.866;2023-05-07T02:28:47;16.67;;;13.70;;
49193;SDS011;35029;50.804;12.866;2023-05-07T02:31:13;16.95;;;13.90;;
49193;SDS011;35029;50.804;12.866;2023-05-07T02:33:39;17.33;;;14.50;;
49193;SDS011;35029;50.804;12.866;2023-05-07T02:36:10;18.88;;;15.38;;
49193;SDS011;35029;50.804;12.866;2023-05-07T02:38:45;18.33;;;14.70;;
49193;SDS011;35029;50.804;12.866;2023-05-07T02:41:10;18.00;;;15.15;;
49193;SDS011;35029;50.804;12.866;2023-05-07T02:43:36;16.95;;;14.38;;
49193;SDS011;35029;50.804;12.866;2023-05-07T02:48:34;17.50;;;15.18;;
49193;SDS011;35029;50.804;12.866;2023-05-07T02:51:00;16.85;;;15.05;;
49193;SDS011;35029;50.804;12.866;2023-05-07T02:53:26;18.77;;;16.50;;
49193;SDS011;35029;50.804;12.866;2023-05-07T02:55:56;21.10;;;16.50;;
49193;SDS011;35029;50.804;12.866;2023-05-07T02:58:22;19.30;;;16.48;;
49193;SDS011;35029;50.804;12.866;2023-05-07T03:00:49;19.02;;;16.67;;
49193;SDS011;35029;50.804;12.866;2023-05-07T03:03:53;19.70;;;17.17;;
49193;SDS011;35029;50.804;12.866;2023-05-07T03:06:19;18.02;;;16.13;;
49193;SDS011;35029;50.804;12.866;2023-05-07T03:08:44;20.65;;;17.50;;
49193;SDS011;35029;50.804;12.866;2023-05-07T03:11:10;24.08;;;17.73;;
49193;SDS011;35029;50.804;12.866;2023-05-07T03:13:36;18.40;;;16.40;;
49193;SDS011;35029;50.804;12.866;2023-05-07T03:16:02;21.08;;;17.63;;
49193;SDS011;35029;50.804;12.866;2023-05-07T03:18:27;20.75;;;17.63;;
49193;SDS011;35029;50.804;12.866;2023-05-07T03:20:53;18.92;;;16.90;;
49193;SDS011;35029;50.804;12.866;2023-05-07T03:23:18;21.55;;;18.50;;
49193;SDS011;35029;50.804;12.866;2023-05-07T03:25:44;21.55;;;18.40;;
49193;SDS011;35029;50.804;12.866;2023-05-07T03:28:10;18.42;;;15.35;;
49193;SDS011;35029;50.804;12.866;2023-05-07T03:30:47;21.67;;;19.17;;
49193;SDS011;35029;50.804;12.866;2023-05-07T03:33:13;24.55;;;18.95;;
49193;SDS011;35029;50.804;12.866;2023-05-07T03:35:39;23.17;;;18.65;;
49193;SDS011;35029;50.804;12.866;2023-05-07T03:38:05;24.02;;;19.85;;
49193;SDS011;35029;50.804;12.866;2023-05-07T03:40:33;24.50;;;20.15;;
49193;SDS011;35029;50.804;12.866;2023-05-07T03:43:00;24.42;;;19.52;;
49193;SDS011;35029;50.804;12.866;2023-05-07T03:45:27;21.77;;;19.48;;
49193;SDS011;35029;50.804;12.866;2023-05-07T03:48:04;22.38;;;19.80;;
49193;SDS011;35029;50.804;12.866;2023-05-07T03:50:30;25.02;;;21.13;;
49193;SDS011;35029;50.804;12.866;2023-05-07T03:52:56;24.17;;;21.02;;
49193;SDS011;35029;50.804;12.866;2023-05-07T03:55:22;25.80;;;20.83;;
49193;SDS011;35029;50.804;12.866;2023-05-07T03:57:53;25.20;;;20.85;;
49193;SDS011;35029;50.804;12.866;2023-05-07T04:00:19;24.92;;;20.80;;
49193;SDS011;35029;50.804;12.866;2023-05-07T04:02:46;24.27;;;19.63;;
49193;SDS011;35029;50.804;12.866;2023-05-07T04:05:14;25.88;;;20.80;;
49193;SDS011;35029;50.804;12.866;2023-05-07T04:07:41;21.17;;;18.20;;
49193;SDS011;35029;50.804;12.866;2023-05-07T04:10:08;23.25;;;20.58;;
49193;SDS011;35029;50.804;12.866;2023-05-07T04:12:34;21.58;;;18.50;;
49193;SDS011;35029;50.804;12.866;2023-05-07T04:15:00;24.23;;;19.40;;
49193;SDS011;35029;50.804;12.866;2023-05-07T04:17:26;24.15;;;19.42;;
49193;SDS011;35029;50.804;12.866;2023-05-07T04:19:52;22.48;;;17.83;;
49193;SDS011;35029;50.804;12.866;2023-05-07T04:22:18;20.50;;;17.92;;
49193;SDS011;35029;50.804;12.866;2023-05-07T04:24:44;22.80;;;18.98;;
49193;SDS011;35029;50.804;12.866;2023-05-07T04:27:12;23.67;;;19.73;;
49193;SDS011;35029;50.804;12.866;2023-05-07T04:29:38;23.98;;;20.17;;
49193;SDS011;35029;50.804;12.866;2023-05-07T04:32:09;22.02;;;18.52;;
49193;SDS011;35029;50.804;12.866;2023-05-07T04:34:36;22.08;;;17.83;;
49193;SDS011;35029;50.804;12.866;2023-05-07T04:37:02;20.85;;;17.70;;
49193;SDS011;35029;50.804;12.866;2023-05-07T04:39:28;21.13;;;17.25;;
49193;SDS011;35029;50.804;12.866;2023-05-07T04:41:54;25.55;;;19.75;;
49193;SDS011;35029;50.804;12.866;2023-05-07T04:44:21;20.77;;;17.35;;
49193;SDS011;35029;50.804;12.866;2023-05-07T04:46:47;20.67;;;15.43;;
49193;SDS011;35029;50.804;12.866;2023-05-07T04:49:13;19.85;;;16.58;;
49193;SDS011;35029;50.804;12.866;2023-05-07T04:51:40;20.65;;;15.77;;
49193;SDS011;35029;50.804;12.866;2023-05-07T04:54:08;22.13;;;16.35;;
49193;SDS011;35029;50.804;12.866;2023-05-07T04:56:34;17.58;;;15.00;;
49193;SDS011;35029;50.804;12.866;2023-05-07T04:59:01;17.50;;;13.27;;
49193;SDS011;35029;50.804;12.866;2023-05-07T05:01:27;14.77;;;13.00;;
49193;SDS011;35029;50.804;12.866;2023-05-07T05:03:52;17.40;;;13.90;;
49193;SDS011;35029;50.804;12.866;2023-05-07T05:06:19;17.00;;;13.25;;
49193;SDS011;35029;50.804;12.866;2023-05-07T05:08:45;14.93;;;12.77;;
49193;SDS011;35029;50.804;12.866;2023-05-07T05:11:11;14.20;;;12.30;;
49193;SDS011;35029;50.804;12.866;2023-05-07T05:13:36;13.27;;;11.82;;
49193;SDS011;35029;50.804;12.866;2023-05-07T05:16:09;14.02;;;12.00;;
49193;SDS011;35029;50.804;12.866;2023-05-07T05:18:36;15.13;;;11.75;;
49193;SDS011;35029;50.804;12.866;2023-05-07T05:21:01;16.10;;;12.55;;
49193;SDS011;35029;50.804;12.866;2023-05-07T05:23:28;16.25;;;12.65;;
49193;SDS011;35029;50.804;12.866;2023-05-07T05:25:57;13.75;;;12.10;;
49193;SDS011;35029;50.804;12.866;2023-05-07T05:28:25;14.88;;;11.85;;
49193;SDS011;35029;50.804;12.866;2023-05-07T05:30:53;16.02;;;13.07;;
49193;SDS011;35029;50.804;12.866;2023-05-07T05:33:20;16.63;;;13.20;;
49193;SDS011;35029;50.804;12.866;2023-05-07T05:35:45;16.40;;;13.35;;
49193;SDS011;35029;50.804;12.866;2023-05-07T05:38:12;14.85;;;12.73;;
49193;SDS011;35029;50.804;12.866;2023-05-07T05:40:38;13.88;;;12.38;;
49193;SDS011;35029;50.804;12.866;2023-05-07T05:43:04;17.65;;;13.70;;
49193;SDS011;35029;50.804;12.866;2023-05-07T05:45:30;17.95;;;15.68;;
49193;SDS011;35029;50.804;12.866;2023-05-07T05:47:56;16.83;;;14.65;;
49193;SDS011;35029;50.804;12.866;2023-05-07T05:50:23;16.63;;;14.77;;
49193;SDS011;35029;50.804;12.866;2023-05-07T05:52:48;16.40;;;14.27;;
49193;SDS011;35029;50.804;12.866;2023-05-07T05:55:15;15.13;;;13.45;;
49193;SDS011;35029;50.804;12.866;2023-05-07T05:57:41;17.95;;;16.05;;
49193;SDS011;35029;50.804;12.866;2023-05-07T06:00:08;20.58;;;16.58;;
49193;SDS011;35029;50.804;12.866;2023-05-07T06:02:44;19.40;;;16.85;;
49193;SDS011;35029;50.804;12.866;2023-05-07T06:05:12;19.20;;;16.88;;
49193;SDS011;35029;50.804;12.866;2023-05-07T06:07:39;21.08;;;17.70;;
49193;SDS011;35029;50.804;12.866;2023-05-07T06:10:05;20.65;;;17.23;;
49193;SDS011;35029;50.804;12.866;2023-05-07T06:12:31;22.48;;;17.45;;
49193;SDS011;35029;50.804;12.866;2023-05-07T06:14:57;20.10;;;17.40;;
49193;SDS011;35029;50.804;12.866;2023-05-07T06:17:23;17.27;;;14.98;;
49193;SDS011;35029;50.804;12.866;2023-05-07T06:19:49;16.63;;;12.88;;
49193;SDS011;35029;50.804;12.866;2023-05-07T06:22:16;17.73;;;13.93;;
49193;SDS011;35029;50.804;12.866;2023-05-07T06:24:42;18.30;;;14.90;;
49193;SDS011;35029;50.804;12.866;2023-05-07T06:27:08;18.02;;;15.43;;
49193;SDS011;35029;50.804;12.866;2023-05-07T06:29:34;18.33;;;15.10;;
49193;SDS011;35029;50.804;12.866;2023-05-07T06:32:10;17.92;;;15.40;;
49193;SDS011;35029;50.804;12.866;2023-05-07T06:34:39;16.35;;;14.63;;
49193;SDS011;35029;50.804;12.866;2023-05-07T06:37:05;16.98;;;13.48;;
49193;SDS011;35029;50.804;12.866;2023-05-07T06:39:51;14.75;;;12.90;;
49193;SDS011;35029;50.804;12.866;2023-05-07T06:42:16;18.23;;;13.98;;
49193;SDS011;35029;50.804;12.866;2023-05-07T06:44:45;14.50;;;12.95;;
49193;SDS011;35029;50.804;12.866;2023-05-07T06:47:13;15.13;;;12.65;;
49193;SDS011;35029;50.804;12.866;2023-05-07T06:49:39;13.57;;;12.15;;
49193;SDS011;35029;50.804;12.866;2023-05-07T06:52:05;14.43;;;12.15;;
49193;SDS011;35029;50.804;12.866;2023-05-07T06:54:30;15.65;;;12.68;;
49193;SDS011;35029;50.804;12.866;2023-05-07T06:56:56;13.48;;;11.85;;
49193;SDS011;35029;50.804;12.866;2023-05-07T06:59:24;14.88;;;11.88;;
49193;SDS011;35029;50.804;12.866;2023-05-07T07:01:50;12.68;;;10.20;;
49193;SDS011;35029;50.804;12.866;2023-05-07T07:04:16;10.85;;;9.75;;
49193;SDS011;35029;50.804;12.866;2023-05-07T07:06:45;11.40;;;10.20;;
49193;SDS011;35029;50.804;12.866;2023-05-07T07:09:12;12.18;;;10.32;;
49193;SDS011;35029;50.804;12.866;2023-05-07T07:11:39;11.63;;;10.45;;
49193;SDS011;35029;50.804;12.866;2023-05-07T07:14:06;15.32;;;11.43;;
49193;SDS011;35029;50.804;12.866;2023-05-07T07:16:36;14.35;;;12.30;;
49193;SDS011;35029;50.804;12.866;2023-05-07T07:19:01;16.20;;;12.20;;
49193;SDS011;35029;50.804;12.866;2023-05-07T07:21:27;14.57;;;11.80;;
49193;SDS011;35029;50.804;12.866;2023-05-07T07:23:53;18.08;;;13.38;;
49193;SDS011;35029;50.804;12.866;2023-05-07T07:26:19;13.65;;;11.70;;
49193;SDS011;35029;50.804;12.866;2023-05-07T07:28:46;15.50;;;12.75;;
49193;SDS011;35029;50.804;12.866;2023-05-07T07:31:16;13.45;;;11.13;;
49193;SDS011;35029;50.804;12.866;2023-05-07T07:33:42;12.27;;;10.98;;
49193;SDS011;35029;50.804;12.866;2023-05-07T07:36:07;13.52;;;11.40;;
49193;SDS011;35029;50.804;12.866;2023-05-07T07:38:33;13.75;;;12.32;;
49193;SDS011;35029;50.804;12.866;2023-05-07T07:41:00;13.88;;;11.70;;
49193;SDS011;35029;50.804;12.866;2023-05-07T07:43:26;14.23;;;10.57;;
49193;SDS011;35029;50.804;12.866;2023-05-07T07:45:52;12.57;;;10.80;;
49193;SDS011;35029;50.804;12.866;2023-05-07T07:48:18;11.30;;;10.10;;
49193;SDS011;35029;50.804;12.866;2023-05-07T07:50:45;11.95;;;10.35;;
49193;SDS011;35029;50.804;12.866;2023-05-07T07:53:15;13.37;;;11.27;;
49193;SDS011;35029;50.804;12.866;2023-05-07T07:55:41;11.50;;;10.30;;
49193;SDS011;35029;50.804;12.866;2023-05-07T07:58:08;10.10;;;9.05;;
49193;SDS011;35029;50.804;12.866;2023-05-07T08:00:33;9.73;;;8.73;;
49193;SDS011;35029;50.804;12.866;2023-05-07T08:02:59;10.88;;;9.38;;
49193;SDS011;35029;50.804;12.866;2023-05-07T08:05:30;10.80;;;9.02;;
49193;SDS011;35029;50.804;12.866;2023-05-07T08:07:57;11.85;;;8.52;;
49193;SDS011;35029;50.804;12.866;2023-05-07T08:10:28;9.43;;;8.43;;
49193;SDS011;35029;50.804;12.866;2023-05-07T08:13:00;10.77;;;9.18;;
49193;SDS011;35029;50.804;12.866;2023-05-07T08:15:26;10.77;;;9.43;;
49193;SDS011;35029;50.804;12.866;2023-05-07T08:17:52;12.07;;;9.30;;
49193;SDS011;35029;50.804;12.866;2023-05-07T08:20:17;11.00;;;8.88;;
49193;SDS011;35029;50.804;12.866;2023-05-07T08:22:43;10.95;;;8.00;;
49193;SDS011;35029;50.804;12.866;2023-05-07T08:25:10;8.45;;;7.57;;
49193;SDS011;35029;50.804;12.866;2023-05-07T08:27:36;9.65;;;7.60;;
49193;SDS011;35029;50.804;12.866;2023-05-07T08:30:03;8.20;;;7.32;;
49193;SDS011;35029;50.804;12.866;2023-05-07T08:32:29;7.78;;;7.00;;
49193;SDS011;35029;50.804;12.866;2023-05-07T08:34:54;9.90;;;6.90;;
49193;SDS011;35029;50.804;12.866;2023-05-07T08:37:20;12.65;;;7.70;;
49193;SDS011;35029;50.804;12.866;2023-05-07T08:39:46;9.82;;;7.93;;
49193;SDS011;35029;50.804;12.866;2023-05-07T08:42:17;8.25;;;6.75;;
49193;SDS011;35029;50.804;12.866;2023-05-07T08:44:45;9.90;;;7.13;;
49193;SDS011;35029;50.804;12.866;2023-05-07T08:47:16;7.20;;;6.10;;
49193;SDS011;35029;50.804;12.866;2023-05-07T08:49:43;7.38;;;6.07;;
49193;SDS011;35029;50.804;12.866;2023-05-07T08:52:09;8.52;;;7.22;;
49193;SDS011;35029;50.804;12.866;2023-05-07T08:54:37;6.70;;;6.10;;
49193;SDS011;35029;50.804;12.866;2023-05-07T08:57:04;8.25;;;6.93;;
49193;SDS011;35029;50.804;12.866;2023-05-07T08:59:34;5.97;;;5.40;;
49193;SDS011;35029;50.804;12.866;2023-05-07T09:01:59;6.35;;;5.22;;
49193;SDS011;35029;50.804;12.866;2023-05-07T09:04:26;7.22;;;5.30;;
49193;SDS011;35029;50.804;12.866;2023-05-07T09:06:52;5.93;;;5.32;;
49193;SDS011;35029;50.804;12.866;2023-05-07T09:09:21;5.35;;;4.85;;
49193;SDS011;35029;50.804;12.866;2023-05-07T09:11:48;5.13;;;4.57;;
49193;SDS011;35029;50.804;12.866;2023-05-07T09:14:21;4.95;;;4.43;;
49193;SDS011;35029;50.804;12.866;2023-05-07T09:16:47;5.30;;;4.80;;
49193;SDS011;35029;50.804;12.866;2023-05-07T09:19:13;5.65;;;5.03;;
49193;SDS011;35029;50.804;12.866;2023-05-07T09:21:43;9.57;;;5.57;;
49193;SDS011;35029;50.804;12.866;2023-05-07T09:24:10;8.45;;;5.32;;
49193;SDS011;35029;50.804;12.866;2023-05-07T09:26:39;9.20;;;5.03;;
49193;SDS011;35029;50.804;12.866;2023-05-07T09:29:07;6.18;;;5.07;;
49193;SDS011;35029;50.804;12.866;2023-05-07T09:31:36;5.60;;;5.07;;
49193;SDS011;35029;50.804;12.866;2023-05-07T09:34:07;6.13;;;5.18;;
49193;SDS011;35029;50.804;12.866;2023-05-07T09:36:35;5.30;;;4.80;;
49193;SDS011;35029;50.804;12.866;2023-05-07T09:39:01;5.13;;;4.65;;
49193;SDS011;35029;50.804;12.866;2023-05-07T09:41:29;4.90;;;4.47;;
49193;SDS011;35029;50.804;12.866;2023-05-07T09:44:04;4.72;;;4.22;;
49193;SDS011;35029;50.804;12.866;2023-05-07T09:46:36;6.57;;;5.13;;
49193;SDS011;35029;50.804;12.866;2023-05-07T09:49:12;5.45;;;4.95;;
49193;SDS011;35029;50.804;12.866;2023-05-07T09:51:47;6.55;;;5.93;;
49193;SDS011;35029;50.804;12.866;2023-05-07T09:54:16;7.07;;;5.55;;
49193;SDS011;35029;50.804;12.866;2023-05-07T09:56:45;5.90;;;5.30;;
49193;SDS011;35029;50.804;12.866;2023-05-07T09:59:14;5.70;;;4.88;;
49193;SDS011;35029;50.804;12.866;2023-05-07T10:01:42;5.45;;;4.85;;
49193;SDS011;35029;50.804;12.866;2023-05-07T10:04:09;5.75;;;4.82;;
49193;SDS011;35029;50.804;12.866;2023-05-07T10:06:36;6.25;;;5.30;;
49193;SDS011;35029;50.804;12.866;2023-05-07T10:09:04;6.25;;;5.60;;
49193;SDS011;35029;50.804;12.866;2023-05-07T10:11:34;5.38;;;4.88;;
49193;SDS011;35029;50.804;12.866;2023-05-07T10:14:01;4.80;;;4.40;;
49193;SDS011;35029;50.804;12.866;2023-05-07T10:16:33;7.10;;;4.95;;
49193;SDS011;35029;50.804;12.866;2023-05-07T10:19:08;5.43;;;4.80;;
49193;SDS011;35029;50.804;12.866;2023-05-07T10:21:48;5.10;;;4.60;;
49193;SDS011;35029;50.804;12.866;2023-05-07T10:24:22;5.35;;;4.82;;
49193;SDS011;35029;50.804;12.866;2023-05-07T10:27:00;5.50;;;4.40;;
49193;SDS011;35029;50.804;12.866;2023-05-07T10:34:59;6.53;;;4.30;;
49193;SDS011;35029;50.804;12.866;2023-05-07T10:37:28;4.65;;;4.25;;
49193;SDS011;35029;50.804;12.866;2023-05-07T10:39:55;5.47;;;4.93;;
49193;SDS011;35029;50.804;12.866;2023-05-07T10:42:23;4.05;;;3.65;;
49193;SDS011;35029;50.804;12.866;2023-05-07T10:44:51;4.22;;;3.83;;
49193;SDS011;35029;50.804;12.866;2023-05-07T10:47:23;6.40;;;4.20;;
49193;SDS011;35029;50.804;12.866;2023-05-07T10:52:24;4.30;;;3.90;;
49193;SDS011;35029;50.804;12.866;2023-05-07T10:57:45;3.95;;;3.55;;
49193;SDS011;35029;50.804;12.866;2023-05-07T11:05:30;5.30;;;4.25;;
49193;SDS011;35029;50.804;12.866;2023-05-07T11:08:15;4.05;;;3.65;;
49193;SDS011;35029;50.804;12.866;2023-05-07T11:11:07;4.03;;;3.55;;
49193;SDS011;35029;50.804;12.866;2023-05-07T11:13:44;4.25;;;3.85;;
49193;SDS011;35029;50.804;12.866;2023-05-07T11:18:59;4.75;;;3.88;;
49193;SDS011;35029;50.804;12.866;2023-05-07T11:21:40;5.00;;;3.63;;
49193;SDS011;35029;50.804;12.866;2023-05-07T11:24:39;4.22;;;3.85;;
49193;SDS011;35029;50.804;12.866;2023-05-07T11:27:08;4.35;;;3.95;;
49193;SDS011;35029;50.804;12.866;2023-05-07T11:29:34;4.60;;;4.20;;
49193;SDS011;35029;50.804;12.866;2023-05-07T11:32:09;4.10;;;3.75;;
49193;SDS011;35029;50.804;12.866;2023-05-07T11:34:41;3.72;;;3.42;;
49193;SDS011;35029;50.804;12.866;2023-05-07T11:37:07;3.97;;;3.60;;
49193;SDS011;35029;50.804;12.866;2023-05-07T11:39:46;6.22;;;3.60;;
49193;SDS011;35029;50.804;12.866;2023-05-07T11:42:31;3.78;;;3.47;;
49193;SDS011;35029;50.804;12.866;2023-05-07T11:44:59;3.70;;;3.40;;
49193;SDS011;35029;50.804;12.866;2023-05-07T11:47:25;5.50;;;4.30;;
49193;SDS011;35029;50.804;12.866;2023-05-07T11:49:51;3.95;;;3.55;;
49193;SDS011;35029;50.804;12.866;2023-05-07T11:52:18;3.95;;;3.63;;
49193;SDS011;35029;50.804;12.866;2023-05-07T11:54:51;4.68;;;3.70;;
49193;SDS011;35029;50.804;12.866;2023-05-07T11:57:18;4.70;;;4.30;;
49193;SDS011;35029;50.804;12.866;2023-05-07T11:59:45;4.15;;;3.78;;
49193;SDS011;35029;50.804;12.866;2023-05-07T12:02:13;3.60;;;3.30;;
49193;SDS011;35029;50.804;12.866;2023-05-07T12:04:39;6.18;;;3.63;;
49193;SDS011;35029;50.804;12.866;2023-05-07T12:07:05;4.82;;;4.32;;
49193;SDS011;35029;50.804;12.866;2023-05-07T12:09:32;5.28;;;4.78;;
49193;SDS011;35029;50.804;12.866;2023-05-07T12:12:04;4.13;;;3.72;;
49193;SDS011;35029;50.804;12.866;2023-05-07T12:14:30;4.43;;;4.03;;
49193;SDS011;35029;50.804;12.866;2023-05-07T12:16:56;3.60;;;3.30;;
49193;SDS011;35029;50.804;12.866;2023-05-07T12:19:22;5.13;;;3.80;;
49193;SDS011;35029;50.804;12.866;2023-05-07T12:21:48;4.32;;;3.72;;
49193;SDS011;35029;50.804;12.866;2023-05-07T12:24:14;4.65;;;3.63;;
49193;SDS011;35029;50.804;12.866;2023-05-07T12:26:40;4.95;;;3.70;;
49193;SDS011;35029;50.804;12.866;2023-05-07T12:29:06;3.75;;;3.45;;
49193;SDS011;35029;50.804;12.866;2023-05-07T12:31:32;4.97;;;4.10;;
49193;SDS011;35029;50.804;12.866;2023-05-07T12:33:57;3.70;;;3.40;;
49193;SDS011;35029;50.804;12.866;2023-05-07T12:36:23;3.22;;;2.92;;
49193;SDS011;35029;50.804;12.866;2023-05-07T12:38:49;3.65;;;3.15;;
49193;SDS011;35029;50.804;12.866;2023-05-07T12:41:15;3.28;;;3.03;;
49193;SDS011;35029;50.804;12.866;2023-05-07T12:43:44;4.93;;;3.22;;
49193;SDS011;35029;50.804;12.866;2023-05-07T12:46:11;3.30;;;3.00;;
49193;SDS011;35029;50.804;12.866;2023-05-07T12:48:48;3.35;;;3.05;;
49193;SDS011;35029;50.804;12.866;2023-05-07T12:51:14;3.65;;;3.35;;
49193;SDS011;35029;50.804;12.866;2023-05-07T12:53:41;3.38;;;3.08;;
49193;SDS011;35029;50.804;12.866;2023-05-07T12:56:07;3.50;;;3.20;;
49193;SDS011;35029;50.804;12.866;2023-05-07T12:58:34;4.80;;;3.80;;
49193;SDS011;35029;50.804;12.866;2023-05-07T13:01:05;3.40;;;3.10;;
49193;SDS011;35029;50.804;12.866;2023-05-07T13:03:33;3.70;;;3.40;;
49193;SDS011;35029;50.804;12.866;2023-05-07T13:06:01;3.58;;;3.28;;
49193;SDS011;35029;50.804;12.866;2023-05-07T13:08:38;3.90;;;3.60;;
49193;SDS011;35029;50.804;12.866;2023-05-07T13:11:08;4.20;;;3.80;;
49193;SDS011;35029;50.804;12.866;2023-05-07T13:13:36;4.40;;;4.00;;
49193;SDS011;35029;50.804;12.866;2023-05-07T13:16:04;8.65;;;3.88;;
49193;SDS011;35029;50.804;12.866;2023-05-07T13:18:31;4.97;;;3.58;;
49193;SDS011;35029;50.804;12.866;2023-05-07T13:20:57;4.40;;;3.65;;
49193;SDS011;35029;50.804;12.866;2023-05-07T13:23:23;4.10;;;3.70;;
49193;SDS011;35029;50.804;12.866;2023-05-07T13:25:49;4.55;;;3.88;;
49193;SDS011;35029;50.804;12.866;2023-05-07T13:28:16;4.00;;;3.60;;
49193;SDS011;35029;50.804;12.866;2023-05-07T13:30:41;4.05;;;3.70;;
49193;SDS011;35029;50.804;12.866;2023-05-07T13:33:08;6.53;;;3.60;;
49193;SDS011;35029;50.804;12.866;2023-05-07T13:35:34;4.38;;;4.00;;
49193;SDS011;35029;50.804;12.866;2023-05-07T13:38:00;4.53;;;3.50;;
49193;SDS011;35029;50.804;12.866;2023-05-07T13:40:25;4.40;;;4.00;;
49193;SDS011;35029;50.804;12.866;2023-05-07T13:42:52;3.60;;;3.30;;
49193;SDS011;35029;50.804;12.866;2023-05-07T13:45:18;5.22;;;3.30;;
49193;SDS011;35029;50.804;12.866;2023-05-07T13:47:44;4.50;;;3.72;;
49193;SDS011;35029;50.804;12.866;2023-05-07T13:50:11;4.35;;;3.95;;
49193;SDS011;35029;50.804;12.866;2023-05-07T13:52:40;4.95;;;4.18;;
49193;SDS011;35029;50.804;12.866;2023-05-07T13:55:06;4.07;;;3.67;;
49193;SDS011;35029;50.804;12.866;2023-05-07T13:57:32;4.57;;;3.90;;
49193;SDS011;35029;50.804;12.866;2023-05-07T13:59:58;4.40;;;4.03;;
49193;SDS011;35029;50.804;12.866;2023-05-07T14:02:24;4.05;;;3.58;;
49193;SDS011;35029;50.804;12.866;2023-05-07T14:04:49;5.30;;;3.95;;
49193;SDS011;35029;50.804;12.866;2023-05-07T14:07:15;4.80;;;3.60;;
49193;SDS011;35029;50.804;12.866;2023-05-07T14:09:40;3.50;;;3.20;;
49193;SDS011;35029;50.804;12.866;2023-05-07T14:12:07;3.88;;;3.20;;
49193;SDS011;35029;50.804;12.866;2023-05-07T14:14:32;3.78;;;3.40;;
49193;SDS011;35029;50.804;12.866;2023-05-07T14:16:58;3.80;;;3.50;;
49193;SDS011;35029;50.804;12.866;2023-05-07T14:19:23;3.40;;;3.10;;
49193;SDS011;35029;50.804;12.866;2023-05-07T14:21:49;3.70;;;3.40;;
49193;SDS011;35029;50.804;12.866;2023-05-07T14:24:14;3.67;;;3.38;;
49193;SDS011;35029;50.804;12.866;2023-05-07T14:26:40;4.60;;;3.70;;
49193;SDS011;35029;50.804;12.866;2023-05-07T14:29:06;3.17;;;2.88;;
49193;SDS011;35029;50.804;12.866;2023-05-07T14:31:31;4.22;;;3.17;;
49193;SDS011;35029;50.804;12.866;2023-05-07T14:33:58;4.10;;;3.25;;
49193;SDS011;35029;50.804;12.866;2023-05-07T14:36:24;3.70;;;3.40;;
49193;SDS011;35029;50.804;12.866;2023-05-07T14:38:51;3.60;;;2.92;;
49193;SDS011;35029;50.804;12.866;2023-05-07T14:41:21;4.18;;;3.83;;
49193;SDS011;35029;50.804;12.866;2023-05-07T14:43:47;4.47;;;4.07;;
49193;SDS011;35029;50.804;12.866;2023-05-07T14:46:17;3.72;;;3.40;;